sensor_id;sensor_type;location;lat;lon;timestamp;P1;durP1;ratioP1;P2;durP2;ratioP2
21101;SDS011;10709;49.006;12.100;2023-04-15T00:01:35;7.57;;;6.67;;
21101;SDS011;10709;49.006;12.100;2023-04-15T00:04:03;9.30;;;7.30;;
21101;SDS011;10709;49.006;12.100;2023-04-15T00:06:30;10.17;;;7.87;;
21101;SDS011;10709;49.006;12.100;2023-04-15T00:08:56;8.30;;;6.93;;
21101;SDS011;10709;49.006;12.100;2023-04-15T00:11:23;10.50;;;7.13;;
21101;SDS011;10709;49.006;12.100;2023-04-15T00:13:50;8.93;;;7.10;;
21101;SDS011;10709;49.006;12.100;2023-04-15T00:16:16;9.23;;;7.80;;
21101;SDS011;10709;49.006;12.100;2023-04-15T00:18:43;8.23;;;7.33;;
21101;SDS011;10709;49.006;12.100;2023-04-15T00:21:09;8.23;;;7.23;;
21101;SDS011;10709;49.006;12.100;2023-04-15T00:23:36;8.30;;;7.00;;
21101;SDS011;10709;49.006;12.100;2023-04-15T00:26:02;8.10;;;7.30;;
21101;SDS011;10709;49.006;12.100;2023-04-15T00:28:29;7.80;;;7.00;;
21101;SDS011;10709;49.006;12.100;2023-04-15T00:30:56;8.60;;;7.33;;
21101;SDS011;10709;49.006;12.100;2023-04-15T00:33:23;7.57;;;6.73;;
21101;SDS011;10709;49.006;12.100;2023-04-15T00:35:49;9.30;;;7.00;;
21101;SDS011;10709;49.006;12.100;2023-04-15T00:38:16;7.97;;;7.10;;
21101;SDS011;10709;49.006;12.100;2023-04-15T00:40:42;7.47;;;6.70;;
21101;SDS011;10709;49.006;12.100;2023-04-15T00:43:09;7.00;;;6.30;;
21101;SDS011;10709;49.006;12.100;2023-04-15T00:45:35;7.77;;;6.07;;
21101;SDS011;10709;49.006;12.100;2023-04-15T00:48:02;6.43;;;5.83;;
21101;SDS011;10709;49.006;12.100;2023-04-15T00:50:30;7.00;;;6.23;;
21101;SDS011;10709;49.006;12.100;2023-04-15T00:52:57;8.30;;;6.70;;
21101;SDS011;10709;49.006;12.100;2023-04-15T00:55:23;6.13;;;5.53;;
21101;SDS011;10709;49.006;12.100;2023-04-15T00:57:50;6.90;;;6.20;;
21101;SDS011;10709;49.006;12.100;2023-04-15T01:00:17;8.20;;;6.27;;
21101;SDS011;10709;49.006;12.100;2023-04-15T01:02:45;8.30;;;6.30;;
21101;SDS011;10709;49.006;12.100;2023-04-15T01:05:12;7.77;;;5.80;;
21101;SDS011;10709;49.006;12.100;2023-04-15T01:07:38;6.13;;;5.37;;
21101;SDS011;10709;49.006;12.100;2023-04-15T01:10:05;5.97;;;5.33;;
21101;SDS011;10709;49.006;12.100;2023-04-15T01:12:33;6.40;;;5.53;;
21101;SDS011;10709;49.006;12.100;2023-04-15T01:15:01;7.27;;;6.23;;
21101;SDS011;10709;49.006;12.100;2023-04-15T01:17:27;7.07;;;5.90;;
21101;SDS011;10709;49.006;12.100;2023-04-15T01:19:55;6.97;;;6.20;;
21101;SDS011;10709;49.006;12.100;2023-04-15T01:22:25;8.10;;;6.93;;
21101;SDS011;10709;49.006;12.100;2023-04-15T01:24:54;7.30;;;6.60;;
21101;SDS011;10709;49.006;12.100;2023-04-15T01:27:27;8.53;;;6.77;;
21101;SDS011;10709;49.006;12.100;2023-04-15T01:30:08;8.83;;;6.33;;
21101;SDS011;10709;49.006;12.100;2023-04-15T01:32:36;7.47;;;6.27;;
21101;SDS011;10709;49.006;12.100;2023-04-15T01:35:02;7.63;;;6.50;;
21101;SDS011;10709;49.006;12.100;2023-04-15T01:37:29;7.23;;;6.53;;
21101;SDS011;10709;49.006;12.100;2023-04-15T01:39:56;6.97;;;6.27;;
21101;SDS011;10709;49.006;12.100;2023-04-15T01:42:23;7.23;;;6.47;;
21101;SDS011;10709;49.006;12.100;2023-04-15T01:44:49;9.17;;;6.80;;
21101;SDS011;10709;49.006;12.100;2023-04-15T01:47:16;8.83;;;7.00;;
21101;SDS011;10709;49.006;12.100;2023-04-15T01:49:42;8.30;;;7.10;;
21101;SDS011;10709;49.006;12.100;2023-04-15T01:52:09;9.70;;;6.63;;
21101;SDS011;10709;49.006;12.100;2023-04-15T01:54:35;7.53;;;6.73;;
21101;SDS011;10709;49.006;12.100;2023-04-15T01:57:01;7.67;;;6.70;;
21101;SDS011;10709;49.006;12.100;2023-04-15T01:59:29;8.77;;;7.43;;
21101;SDS011;10709;49.006;12.100;2023-04-15T02:01:56;7.90;;;7.10;;
21101;SDS011;10709;49.006;12.100;2023-04-15T02:04:23;8.40;;;7.30;;
21101;SDS011;10709;49.006;12.100;2023-04-15T02:14:10;9.13;;;7.50;;
21101;SDS011;10709;49.006;12.100;2023-04-15T02:16:37;10.10;;;7.67;;
21101;SDS011;10709;49.006;12.100;2023-04-15T02:19:04;7.43;;;6.73;;
21101;SDS011;10709;49.006;12.100;2023-04-15T02:21:30;7.67;;;6.87;;
21101;SDS011;10709;49.006;12.100;2023-04-15T02:23:57;8.30;;;7.03;;
21101;SDS011;10709;49.006;12.100;2023-04-15T02:26:23;10.47;;;6.93;;
21101;SDS011;10709;49.006;12.100;2023-04-15T02:28:50;8.33;;;7.13;;
21101;SDS011;10709;49.006;12.100;2023-04-15T02:31:16;7.70;;;7.00;;
21101;SDS011;10709;49.006;12.100;2023-04-15T02:33:43;7.43;;;6.57;;
21101;SDS011;10709;49.006;12.100;2023-04-15T02:36:09;8.13;;;7.17;;
21101;SDS011;10709;49.006;12.100;2023-04-15T02:38:37;8.33;;;6.87;;
21101;SDS011;10709;49.006;12.100;2023-04-15T02:41:06;7.80;;;7.00;;
21101;SDS011;10709;49.006;12.100;2023-04-15T02:43:33;10.00;;;7.07;;
21101;SDS011;10709;49.006;12.100;2023-04-15T02:46:00;9.87;;;7.87;;
21101;SDS011;10709;49.006;12.100;2023-04-15T02:48:26;8.30;;;7.33;;
21101;SDS011;10709;49.006;12.100;2023-04-15T02:50:52;8.77;;;7.87;;
21101;SDS011;10709;49.006;12.100;2023-04-15T02:53:19;8.40;;;7.50;;
21101;SDS011;10709;49.006;12.100;2023-04-15T02:55:45;8.63;;;7.30;;
21101;SDS011;10709;49.006;12.100;2023-04-15T02:58:12;9.60;;;7.83;;
21101;SDS011;10709;49.006;12.100;2023-04-15T03:00:39;9.63;;;7.57;;
21101;SDS011;10709;49.006;12.100;2023-04-15T03:03:05;8.40;;;7.50;;
21101;SDS011;10709;49.006;12.100;2023-04-15T03:05:32;8.23;;;7.13;;
21101;SDS011;10709;49.006;12.100;2023-04-15T03:07:58;8.13;;;6.80;;
21101;SDS011;10709;49.006;12.100;2023-04-15T03:10:26;8.83;;;7.80;;
21101;SDS011;10709;49.006;12.100;2023-04-15T03:12:53;8.17;;;7.03;;
21101;SDS011;10709;49.006;12.100;2023-04-15T03:15:20;9.10;;;7.77;;
21101;SDS011;10709;49.006;12.100;2023-04-15T03:17:46;8.50;;;7.47;;
21101;SDS011;10709;49.006;12.100;2023-04-15T03:20:15;8.60;;;7.50;;
21101;SDS011;10709;49.006;12.100;2023-04-15T03:22:42;9.63;;;8.03;;
21101;SDS011;10709;49.006;12.100;2023-04-15T03:25:08;9.13;;;8.10;;
21101;SDS011;10709;49.006;12.100;2023-04-15T03:27:35;8.50;;;7.47;;
21101;SDS011;10709;49.006;12.100;2023-04-15T03:30:01;10.40;;;8.90;;
21101;SDS011;10709;49.006;12.100;2023-04-15T03:32:28;8.17;;;7.03;;
21101;SDS011;10709;49.006;12.100;2023-04-15T03:34:55;9.20;;;7.80;;
21101;SDS011;10709;49.006;12.100;2023-04-15T03:37:21;9.60;;;7.73;;
21101;SDS011;10709;49.006;12.100;2023-04-15T03:39:47;8.13;;;6.70;;
21101;SDS011;10709;49.006;12.100;2023-04-15T03:42:14;8.53;;;7.27;;
21101;SDS011;10709;49.006;12.100;2023-04-15T03:44:40;9.53;;;7.83;;
21101;SDS011;10709;49.006;12.100;2023-04-15T03:47:07;9.03;;;8.00;;
21101;SDS011;10709;49.006;12.100;2023-04-15T03:49:35;10.43;;;7.90;;
21101;SDS011;10709;49.006;12.100;2023-04-15T03:52:02;11.03;;;8.47;;
21101;SDS011;10709;49.006;12.100;2023-04-15T03:54:28;10.13;;;7.90;;
21101;SDS011;10709;49.006;12.100;2023-04-15T03:56:55;11.50;;;9.70;;
21101;SDS011;10709;49.006;12.100;2023-04-15T03:59:22;13.40;;;10.23;;
21101;SDS011;10709;49.006;12.100;2023-04-15T04:01:48;11.03;;;9.63;;
21101;SDS011;10709;49.006;12.100;2023-04-15T04:04:15;13.17;;;10.57;;
21101;SDS011;10709;49.006;12.100;2023-04-15T04:06:42;15.73;;;11.23;;
21101;SDS011;10709;49.006;12.100;2023-04-15T04:09:08;14.43;;;11.20;;
21101;SDS011;10709;49.006;12.100;2023-04-15T04:11:34;14.27;;;11.67;;
21101;SDS011;10709;49.006;12.100;2023-04-15T04:14:02;17.47;;;12.20;;
21101;SDS011;10709;49.006;12.100;2023-04-15T04:16:29;15.30;;;12.50;;
21101;SDS011;10709;49.006;12.100;2023-04-15T04:18:55;15.43;;;12.83;;
21101;SDS011;10709;49.006;12.100;2023-04-15T04:21:22;19.30;;;13.20;;
21101;SDS011;10709;49.006;12.100;2023-04-15T04:23:48;12.23;;;10.93;;
21101;SDS011;10709;49.006;12.100;2023-04-15T04:26:16;15.77;;;12.67;;
21101;SDS011;10709;49.006;12.100;2023-04-15T04:28:42;15.97;;;12.07;;
21101;SDS011;10709;49.006;12.100;2023-04-15T04:31:09;16.03;;;11.63;;
21101;SDS011;10709;49.006;12.100;2023-04-15T04:33:36;13.43;;;10.27;;
21101;SDS011;10709;49.006;12.100;2023-04-15T04:36:03;13.17;;;11.30;;
21101;SDS011;10709;49.006;12.100;2023-04-15T04:38:29;14.40;;;11.10;;
21101;SDS011;10709;49.006;12.100;2023-04-15T04:40:56;14.00;;;11.47;;
21101;SDS011;10709;49.006;12.100;2023-04-15T04:43:22;16.00;;;12.00;;
21101;SDS011;10709;49.006;12.100;2023-04-15T04:45:49;14.37;;;10.87;;
21101;SDS011;10709;49.006;12.100;2023-04-15T04:48:15;12.70;;;10.93;;
21101;SDS011;10709;49.006;12.100;2023-04-15T04:50:42;14.00;;;10.80;;
21101;SDS011;10709;49.006;12.100;2023-04-15T04:53:09;17.00;;;13.07;;
21101;SDS011;10709;49.006;12.100;2023-04-15T04:55:37;15.27;;;12.33;;
21101;SDS011;10709;49.006;12.100;2023-04-15T04:58:04;13.30;;;11.20;;
21101;SDS011;10709;49.006;12.100;2023-04-15T05:00:31;13.97;;;11.60;;
21101;SDS011;10709;49.006;12.100;2023-04-15T05:02:57;15.57;;;11.80;;
21101;SDS011;10709;49.006;12.100;2023-04-15T05:05:24;17.40;;;13.07;;
21101;SDS011;10709;49.006;12.100;2023-04-15T05:07:51;14.67;;;12.33;;
21101;SDS011;10709;49.006;12.100;2023-04-15T05:10:17;13.27;;;10.50;;
21101;SDS011;10709;49.006;12.100;2023-04-15T05:12:44;13.13;;;11.23;;
21101;SDS011;10709;49.006;12.100;2023-04-15T05:15:11;14.17;;;11.90;;
21101;SDS011;10709;49.006;12.100;2023-04-15T05:17:37;16.37;;;13.07;;
21101;SDS011;10709;49.006;12.100;2023-04-15T05:20:04;13.83;;;11.70;;
21101;SDS011;10709;49.006;12.100;2023-04-15T05:22:31;13.07;;;10.80;;
21101;SDS011;10709;49.006;12.100;2023-04-15T05:24:57;12.17;;;10.17;;
21101;SDS011;10709;49.006;12.100;2023-04-15T05:27:24;15.23;;;11.57;;
21101;SDS011;10709;49.006;12.100;2023-04-15T05:29:51;11.70;;;9.87;;
21101;SDS011;10709;49.006;12.100;2023-04-15T05:32:17;15.53;;;12.83;;
21101;SDS011;10709;49.006;12.100;2023-04-15T05:34:44;15.83;;;12.20;;
21101;SDS011;10709;49.006;12.100;2023-04-15T05:37:10;14.00;;;10.37;;
21101;SDS011;10709;49.006;12.100;2023-04-15T05:39:37;10.83;;;8.70;;
21101;SDS011;10709;49.006;12.100;2023-04-15T05:42:04;12.93;;;9.63;;
21101;SDS011;10709;49.006;12.100;2023-04-15T05:44:31;9.70;;;8.13;;
21101;SDS011;10709;49.006;12.100;2023-04-15T05:46:58;9.10;;;7.87;;
21101;SDS011;10709;49.006;12.100;2023-04-15T05:49:24;8.27;;;7.00;;
21101;SDS011;10709;49.006;12.100;2023-04-15T05:51:51;8.77;;;7.43;;
21101;SDS011;10709;49.006;12.100;2023-04-15T05:54:17;8.67;;;7.40;;
21101;SDS011;10709;49.006;12.100;2023-04-15T05:56:45;9.07;;;7.70;;
21101;SDS011;10709;49.006;12.100;2023-04-15T05:59:11;11.20;;;8.10;;
21101;SDS011;10709;49.006;12.100;2023-04-15T06:01:38;9.47;;;7.80;;
21101;SDS011;10709;49.006;12.100;2023-04-15T06:04:05;8.37;;;7.10;;
21101;SDS011;10709;49.006;12.100;2023-04-15T06:06:32;8.07;;;6.57;;
21101;SDS011;10709;49.006;12.100;2023-04-15T06:08:58;7.97;;;6.87;;
21101;SDS011;10709;49.006;12.100;2023-04-15T06:11:26;7.87;;;6.90;;
21101;SDS011;10709;49.006;12.100;2023-04-15T06:13:52;9.27;;;7.67;;
21101;SDS011;10709;49.006;12.100;2023-04-15T06:16:19;8.17;;;6.93;;
21101;SDS011;10709;49.006;12.100;2023-04-15T06:18:45;11.13;;;8.00;;
21101;SDS011;10709;49.006;12.100;2023-04-15T06:21:12;7.13;;;6.30;;
21101;SDS011;10709;49.006;12.100;2023-04-15T06:23:38;8.37;;;6.33;;
21101;SDS011;10709;49.006;12.100;2023-04-15T06:26:06;8.43;;;6.17;;
21101;SDS011;10709;49.006;12.100;2023-04-15T06:28:33;7.77;;;6.23;;
21101;SDS011;10709;49.006;12.100;2023-04-15T06:31:00;6.03;;;5.43;;
21101;SDS011;10709;49.006;12.100;2023-04-15T06:33:27;6.77;;;5.47;;
21101;SDS011;10709;49.006;12.100;2023-04-15T06:35:53;7.10;;;6.13;;
21101;SDS011;10709;49.006;12.100;2023-04-15T06:38:20;7.13;;;6.13;;
21101;SDS011;10709;49.006;12.100;2023-04-15T06:40:46;6.90;;;6.00;;
21101;SDS011;10709;49.006;12.100;2023-04-15T06:43:13;6.03;;;5.33;;
21101;SDS011;10709;49.006;12.100;2023-04-15T06:45:40;8.90;;;5.57;;
21101;SDS011;10709;49.006;12.100;2023-04-15T06:48:07;6.23;;;5.63;;
21101;SDS011;10709;49.006;12.100;2023-04-15T06:50:33;6.60;;;5.00;;
21101;SDS011;10709;49.006;12.100;2023-04-15T06:53:00;6.10;;;5.50;;
21101;SDS011;10709;49.006;12.100;2023-04-15T06:55:27;8.03;;;5.80;;
21101;SDS011;10709;49.006;12.100;2023-04-15T06:57:53;8.10;;;6.00;;
21101;SDS011;10709;49.006;12.100;2023-04-15T07:00:20;9.53;;;6.37;;
21101;SDS011;10709;49.006;12.100;2023-04-15T07:02:46;10.00;;;6.20;;
21101;SDS011;10709;49.006;12.100;2023-04-15T07:05:13;6.90;;;5.73;;
21101;SDS011;10709;49.006;12.100;2023-04-15T07:07:39;8.17;;;5.87;;
21101;SDS011;10709;49.006;12.100;2023-04-15T07:10:06;5.60;;;4.60;;
21101;SDS011;10709;49.006;12.100;2023-04-15T07:12:33;6.40;;;5.47;;
21101;SDS011;10709;49.006;12.100;2023-04-15T07:15:00;5.47;;;4.73;;
21101;SDS011;10709;49.006;12.100;2023-04-15T07:17:27;6.27;;;4.60;;
21101;SDS011;10709;49.006;12.100;2023-04-15T07:19:53;5.63;;;4.17;;
21101;SDS011;10709;49.006;12.100;2023-04-15T07:22:20;5.30;;;4.47;;
21101;SDS011;10709;49.006;12.100;2023-04-15T07:24:46;5.57;;;4.73;;
21101;SDS011;10709;49.006;12.100;2023-04-15T07:27:13;6.07;;;4.30;;
21101;SDS011;10709;49.006;12.100;2023-04-15T07:29:39;6.23;;;4.70;;
21101;SDS011;10709;49.006;12.100;2023-04-15T07:32:06;5.70;;;4.87;;
21101;SDS011;10709;49.006;12.100;2023-04-15T07:34:32;5.60;;;4.37;;
21101;SDS011;10709;49.006;12.100;2023-04-15T07:36:59;7.23;;;4.40;;
21101;SDS011;10709;49.006;12.100;2023-04-15T07:39:25;4.43;;;3.90;;
21101;SDS011;10709;49.006;12.100;2023-04-15T07:41:52;4.70;;;3.87;;
21101;SDS011;10709;49.006;12.100;2023-04-15T07:44:18;4.80;;;4.20;;
21101;SDS011;10709;49.006;12.100;2023-04-15T07:46:45;5.43;;;4.33;;
21101;SDS011;10709;49.006;12.100;2023-04-15T07:49:11;5.70;;;5.10;;
21101;SDS011;10709;49.006;12.100;2023-04-15T07:51:38;6.23;;;4.30;;
21101;SDS011;10709;49.006;12.100;2023-04-15T07:54:04;4.77;;;4.27;;
21101;SDS011;10709;49.006;12.100;2023-04-15T07:56:31;5.03;;;4.43;;
21101;SDS011;10709;49.006;12.100;2023-04-15T07:58:57;4.60;;;4.20;;
21101;SDS011;10709;49.006;12.100;2023-04-15T08:01:24;8.50;;;7.27;;
21101;SDS011;10709;49.006;12.100;2023-04-15T08:03:50;5.47;;;4.90;;
21101;SDS011;10709;49.006;12.100;2023-04-15T08:06:17;4.70;;;4.27;;
21101;SDS011;10709;49.006;12.100;2023-04-15T08:08:44;6.50;;;4.93;;
21101;SDS011;10709;49.006;12.100;2023-04-15T08:11:11;6.40;;;5.30;;
21101;SDS011;10709;49.006;12.100;2023-04-15T08:13:38;6.73;;;4.63;;
21101;SDS011;10709;49.006;12.100;2023-04-15T08:16:21;5.07;;;4.57;;
21101;SDS011;10709;49.006;12.100;2023-04-15T08:18:50;8.33;;;6.17;;
21101;SDS011;10709;49.006;12.100;2023-04-15T08:21:18;6.20;;;5.00;;
21101;SDS011;10709;49.006;12.100;2023-04-15T08:23:45;5.43;;;4.57;;
21101;SDS011;10709;49.006;12.100;2023-04-15T08:26:14;8.50;;;6.57;;
21101;SDS011;10709;49.006;12.100;2023-04-15T08:28:44;11.37;;;7.20;;
21101;SDS011;10709;49.006;12.100;2023-04-15T08:31:12;10.97;;;7.33;;
21101;SDS011;10709;49.006;12.100;2023-04-15T08:33:40;7.27;;;4.97;;
21101;SDS011;10709;49.006;12.100;2023-04-15T08:36:06;3.63;;;3.30;;
21101;SDS011;10709;49.006;12.100;2023-04-15T08:38:33;6.10;;;4.37;;
21101;SDS011;10709;49.006;12.100;2023-04-15T08:41:01;4.80;;;4.03;;
21101;SDS011;10709;49.006;12.100;2023-04-15T08:43:33;4.90;;;3.50;;
21101;SDS011;10709;49.006;12.100;2023-04-15T08:46:00;5.80;;;4.23;;
21101;SDS011;10709;49.006;12.100;2023-04-15T08:48:28;4.83;;;4.00;;
21101;SDS011;10709;49.006;12.100;2023-04-15T08:50:57;5.20;;;4.10;;
21101;SDS011;10709;49.006;12.100;2023-04-15T08:53:24;3.37;;;3.07;;
21101;SDS011;10709;49.006;12.100;2023-04-15T08:55:51;4.00;;;3.60;;
21101;SDS011;10709;49.006;12.100;2023-04-15T08:58:21;3.90;;;3.10;;
21101;SDS011;10709;49.006;12.100;2023-04-15T09:00:49;4.47;;;4.00;;
21101;SDS011;10709;49.006;12.100;2023-04-15T09:03:16;4.10;;;3.00;;
21101;SDS011;10709;49.006;12.100;2023-04-15T09:05:44;3.87;;;3.20;;
21101;SDS011;10709;49.006;12.100;2023-04-15T09:08:12;3.67;;;3.20;;
21101;SDS011;10709;49.006;12.100;2023-04-15T09:10:38;3.63;;;3.07;;
21101;SDS011;10709;49.006;12.100;2023-04-15T09:13:05;5.17;;;3.10;;
21101;SDS011;10709;49.006;12.100;2023-04-15T09:15:32;3.47;;;3.17;;
21101;SDS011;10709;49.006;12.100;2023-04-15T09:17:59;41.53;;;19.73;;
21101;SDS011;10709;49.006;12.100;2023-04-15T09:20:25;3.60;;;3.03;;
21101;SDS011;10709;49.006;12.100;2023-04-15T09:22:52;3.33;;;2.83;;
21101;SDS011;10709;49.006;12.100;2023-04-15T09:27:48;4.07;;;3.17;;
21101;SDS011;10709;49.006;12.100;2023-04-15T09:30:15;3.30;;;2.70;;
21101;SDS011;10709;49.006;12.100;2023-04-15T09:35:15;3.20;;;2.90;;
21101;SDS011;10709;49.006;12.100;2023-04-15T09:37:41;3.10;;;2.80;;
21101;SDS011;10709;49.006;12.100;2023-04-15T09:40:08;5.97;;;2.87;;
21101;SDS011;10709;49.006;12.100;2023-04-15T09:42:35;2.53;;;2.33;;
21101;SDS011;10709;49.006;12.100;2023-04-15T09:45:12;3.90;;;2.80;;
21101;SDS011;10709;49.006;12.100;2023-04-15T09:47:38;2.33;;;2.13;;
21101;SDS011;10709;49.006;12.100;2023-04-15T09:50:05;3.50;;;2.03;;
21101;SDS011;10709;49.006;12.100;2023-04-15T09:52:32;2.97;;;2.47;;
21101;SDS011;10709;49.006;12.100;2023-04-15T09:54:58;2.40;;;2.20;;
21101;SDS011;10709;49.006;12.100;2023-04-15T09:57:32;2.83;;;2.00;;
21101;SDS011;10709;49.006;12.100;2023-04-15T10:00:04;2.23;;;2.03;;
21101;SDS011;10709;49.006;12.100;2023-04-15T10:02:36;2.23;;;2.03;;
21101;SDS011;10709;49.006;12.100;2023-04-15T10:05:05;2.63;;;2.37;;
21101;SDS011;10709;49.006;12.100;2023-04-15T10:07:32;3.13;;;2.20;;
21101;SDS011;10709;49.006;12.100;2023-04-15T10:10:00;2.20;;;2.00;;
21101;SDS011;10709;49.006;12.100;2023-04-15T10:12:28;2.50;;;2.17;;
21101;SDS011;10709;49.006;12.100;2023-04-15T10:14:58;2.57;;;2.20;;
21101;SDS011;10709;49.006;12.100;2023-04-15T10:17:27;3.97;;;2.20;;
21101;SDS011;10709;49.006;12.100;2023-04-15T10:19:56;2.37;;;2.10;;
21101;SDS011;10709;49.006;12.100;2023-04-15T10:22:25;2.60;;;2.40;;
21101;SDS011;10709;49.006;12.100;2023-04-15T10:24:54;2.87;;;2.30;;
21101;SDS011;10709;49.006;12.100;2023-04-15T10:27:22;2.37;;;2.10;;
21101;SDS011;10709;49.006;12.100;2023-04-15T10:29:49;2.33;;;2.13;;
21101;SDS011;10709;49.006;12.100;2023-04-15T10:32:17;2.30;;;2.10;;
21101;SDS011;10709;49.006;12.100;2023-04-15T10:34:46;2.00;;;1.80;;
21101;SDS011;10709;49.006;12.100;2023-04-15T10:37:19;2.40;;;2.10;;
21101;SDS011;10709;49.006;12.100;2023-04-15T10:39:46;2.10;;;1.93;;
21101;SDS011;10709;49.006;12.100;2023-04-15T10:42:14;2.57;;;2.10;;
21101;SDS011;10709;49.006;12.100;2023-04-15T10:44:55;2.07;;;1.70;;
21101;SDS011;10709;49.006;12.100;2023-04-15T10:47:22;2.43;;;1.80;;
21101;SDS011;10709;49.006;12.100;2023-04-15T10:49:49;2.57;;;2.10;;
21101;SDS011;10709;49.006;12.100;2023-04-15T10:52:17;2.00;;;1.80;;
21101;SDS011;10709;49.006;12.100;2023-04-15T10:54:49;2.13;;;1.70;;
21101;SDS011;10709;49.006;12.100;2023-04-15T10:57:33;2.93;;;1.73;;
21101;SDS011;10709;49.006;12.100;2023-04-15T11:00:03;1.60;;;1.50;;
21101;SDS011;10709;49.006;12.100;2023-04-15T11:03:33;1.50;;;1.33;;
21101;SDS011;10709;49.006;12.100;2023-04-15T11:08:10;1.37;;;1.27;;
21101;SDS011;10709;49.006;12.100;2023-04-15T11:13:05;1.30;;;1.10;;
21101;SDS011;10709;49.006;12.100;2023-04-15T11:15:46;1.20;;;1.07;;
21101;SDS011;10709;49.006;12.100;2023-04-15T11:18:14;1.27;;;0.90;;
21101;SDS011;10709;49.006;12.100;2023-04-15T11:20:42;0.80;;;0.80;;
21101;SDS011;10709;49.006;12.100;2023-04-15T11:23:10;1.33;;;1.10;;
21101;SDS011;10709;49.006;12.100;2023-04-15T11:25:40;0.97;;;0.90;;
21101;SDS011;10709;49.006;12.100;2023-04-15T11:28:08;1.10;;;1.00;;
21101;SDS011;10709;49.006;12.100;2023-04-15T11:30:36;0.93;;;0.93;;
21101;SDS011;10709;49.006;12.100;2023-04-15T11:33:04;1.10;;;1.00;;
21101;SDS011;10709;49.006;12.100;2023-04-15T11:35:32;1.10;;;1.00;;
21101;SDS011;10709;49.006;12.100;2023-04-15T11:38:03;1.40;;;1.20;;
21101;SDS011;10709;49.006;12.100;2023-04-15T11:40:30;1.20;;;1.00;;
21101;SDS011;10709;49.006;12.100;2023-04-15T11:45:37;0.90;;;0.90;;
21101;SDS011;10709;49.006;12.100;2023-04-15T11:48:13;0.87;;;0.87;;
21101;SDS011;10709;49.006;12.100;2023-04-15T11:50:40;1.03;;;0.93;;
21101;SDS011;10709;49.006;12.100;2023-04-15T11:53:07;0.90;;;0.90;;
21101;SDS011;10709;49.006;12.100;2023-04-15T11:55:45;0.90;;;0.77;;
21101;SDS011;10709;49.006;12.100;2023-04-15T12:00:50;0.90;;;0.90;;
21101;SDS011;10709;49.006;12.100;2023-04-15T12:03:25;0.80;;;0.80;;
21101;SDS011;10709;49.006;12.100;2023-04-15T12:06:03;1.00;;;0.90;;
21101;SDS011;10709;49.006;12.100;2023-04-15T12:11:41;1.33;;;1.07;;
21101;SDS011;10709;49.006;12.100;2023-04-15T12:16:44;1.37;;;0.90;;
21101;SDS011;10709;49.006;12.100;2023-04-15T12:19:21;0.80;;;0.80;;
21101;SDS011;10709;49.006;12.100;2023-04-15T12:21:49;0.80;;;0.80;;
21101;SDS011;10709;49.006;12.100;2023-04-15T12:24:18;0.73;;;0.70;;
21101;SDS011;10709;49.006;12.100;2023-04-15T12:26:51;0.77;;;0.67;;
21101;SDS011;10709;49.006;12.100;2023-04-15T12:29:23;1.53;;;0.70;;
21101;SDS011;10709;49.006;12.100;2023-04-15T12:31:52;2.60;;;0.70;;
21101;SDS011;10709;49.006;12.100;2023-04-15T12:34:30;0.90;;;0.87;;
21101;SDS011;10709;49.006;12.100;2023-04-15T12:36:58;0.83;;;0.70;;
21101;SDS011;10709;49.006;12.100;2023-04-15T12:39:27;1.37;;;1.00;;
21101;SDS011;10709;49.006;12.100;2023-04-15T12:41:56;1.17;;;0.90;;
21101;SDS011;10709;49.006;12.100;2023-04-15T12:44:24;1.13;;;0.90;;
21101;SDS011;10709;49.006;12.100;2023-04-15T12:46:51;0.97;;;0.70;;
21101;SDS011;10709;49.006;12.100;2023-04-15T12:49:20;1.10;;;0.80;;
21101;SDS011;10709;49.006;12.100;2023-04-15T12:51:48;1.37;;;0.90;;
21101;SDS011;10709;49.006;12.100;2023-04-15T12:54:16;1.00;;;0.90;;
21101;SDS011;10709;49.006;12.100;2023-04-15T12:56:46;0.90;;;0.90;;
21101;SDS011;10709;49.006;12.100;2023-04-15T12:59:14;1.03;;;0.93;;
21101;SDS011;10709;49.006;12.100;2023-04-15T13:01:41;1.20;;;1.10;;
21101;SDS011;10709;49.006;12.100;2023-04-15T13:04:07;1.10;;;1.00;;
21101;SDS011;10709;49.006;12.100;2023-04-15T13:06:35;1.20;;;1.10;;
21101;SDS011;10709;49.006;12.100;2023-04-15T13:09:02;0.93;;;0.83;;
21101;SDS011;10709;49.006;12.100;2023-04-15T13:11:31;0.80;;;0.80;;
21101;SDS011;10709;49.006;12.100;2023-04-15T13:14:05;2.73;;;1.60;;
21101;SDS011;10709;49.006;12.100;2023-04-15T13:16:33;1.30;;;1.20;;
21101;SDS011;10709;49.006;12.100;2023-04-15T13:19:01;1.20;;;1.10;;
21101;SDS011;10709;49.006;12.100;2023-04-15T13:21:29;0.90;;;0.90;;
21101;SDS011;10709;49.006;12.100;2023-04-15T13:23:56;1.20;;;1.10;;
21101;SDS011;10709;49.006;12.100;2023-04-15T13:26:22;2.07;;;1.33;;
21101;SDS011;10709;49.006;12.100;2023-04-15T13:28:49;1.40;;;1.30;;
21101;SDS011;10709;49.006;12.100;2023-04-15T13:31:15;1.40;;;1.30;;
21101;SDS011;10709;49.006;12.100;2023-04-15T13:33:42;1.73;;;1.30;;
21101;SDS011;10709;49.006;12.100;2023-04-15T13:36:08;1.40;;;1.30;;
21101;SDS011;10709;49.006;12.100;2023-04-15T13:38:35;1.20;;;1.10;;
21101;SDS011;10709;49.006;12.100;2023-04-15T13:41:01;1.03;;;1.00;;
21101;SDS011;10709;49.006;12.100;2023-04-15T13:43:27;1.40;;;1.20;;
21101;SDS011;10709;49.006;12.100;2023-04-15T13:45:54;1.27;;;1.17;;
21101;SDS011;10709;49.006;12.100;2023-04-15T13:48:21;1.30;;;1.20;;
21101;SDS011;10709;49.006;12.100;2023-04-15T13:50:48;1.43;;;1.30;;
21101;SDS011;10709;49.006;12.100;2023-04-15T13:53:14;1.40;;;1.30;;
21101;SDS011;10709;49.006;12.100;2023-04-15T13:55:41;1.50;;;1.33;;
21101;SDS011;10709;49.006;12.100;2023-04-15T13:58:08;2.00;;;1.80;;
21101;SDS011;10709;49.006;12.100;2023-04-15T14:00:35;2.13;;;1.93;;
21101;SDS011;10709;49.006;12.100;2023-04-15T14:03:01;1.70;;;1.60;;
21101;SDS011;10709;49.006;12.100;2023-04-15T14:05:28;2.07;;;1.83;;
21101;SDS011;10709;49.006;12.100;2023-04-15T14:07:55;2.40;;;1.90;;
21101;SDS011;10709;49.006;12.100;2023-04-15T14:10:21;4.07;;;1.80;;
21101;SDS011;10709;49.006;12.100;2023-04-15T14:12:48;2.83;;;2.00;;
21101;SDS011;10709;49.006;12.100;2023-04-15T14:15:14;2.20;;;2.00;;
21101;SDS011;10709;49.006;12.100;2023-04-15T14:17:41;2.10;;;1.70;;
21101;SDS011;10709;49.006;12.100;2023-04-15T14:20:08;2.57;;;2.37;;
21101;SDS011;10709;49.006;12.100;2023-04-15T14:22:35;2.20;;;2.00;;
21101;SDS011;10709;49.006;12.100;2023-04-15T14:25:01;2.20;;;2.00;;
21101;SDS011;10709;49.006;12.100;2023-04-15T14:27:28;2.20;;;2.00;;
21101;SDS011;10709;49.006;12.100;2023-04-15T14:29:54;2.37;;;2.17;;
21101;SDS011;10709;49.006;12.100;2023-04-15T14:32:21;2.20;;;2.00;;
21101;SDS011;10709;49.006;12.100;2023-04-15T14:34:47;2.30;;;2.10;;
21101;SDS011;10709;49.006;12.100;2023-04-15T14:37:14;2.20;;;2.00;;
21101;SDS011;10709;49.006;12.100;2023-04-15T14:39:40;2.47;;;1.90;;
21101;SDS011;10709;49.006;12.100;2023-04-15T14:42:07;2.17;;;1.97;;
21101;SDS011;10709;49.006;12.100;2023-04-15T14:44:33;2.00;;;1.70;;
21101;SDS011;10709;49.006;12.100;2023-04-15T14:46:59;2.13;;;1.90;;
21101;SDS011;10709;49.006;12.100;2023-04-15T14:49:26;2.40;;;2.10;;
21101;SDS011;10709;49.006;12.100;2023-04-15T14:51:52;3.53;;;2.50;;
21101;SDS011;10709;49.006;12.100;2023-04-15T14:54:19;3.50;;;2.40;;
21101;SDS011;10709;49.006;12.100;2023-04-15T14:56:47;2.97;;;2.20;;
21101;SDS011;10709;49.006;12.100;2023-04-15T14:59:14;3.03;;;2.70;;
21101;SDS011;10709;49.006;12.100;2023-04-15T15:01:40;2.70;;;2.33;;